createdAt,value
2018-01-05T00:02:18.621Z,7.20
2018-01-05T00:04:48.346Z,7.30
2018-01-05T00:07:18.845Z,7.30
2018-01-05T00:09:48.555Z,7.30
2018-01-05T00:12:18.303Z,7.30
2018-01-05T00:14:48.849Z,7.30
2018-01-05T00:17:18.602Z,7.30
2018-01-05T00:19:48.371Z,7.30
2018-01-05T00:22:18.156Z,7.30
2018-01-05T00:24:47.650Z,7.40
2018-01-05T00:27:17.378Z,7.40
2018-01-05T00:29:47.885Z,7.40
2018-01-05T00:32:17.662Z,7.30
2018-01-05T00:34:47.421Z,7.40
2018-01-05T00:37:17.922Z,7.30
2018-01-05T00:39:47.760Z,7.30
2018-01-05T00:42:17.489Z,7.30
2018-01-05T00:44:47.221Z,7.30
2018-01-05T00:47:16.978Z,7.30
2018-01-05T00:49:46.740Z,7.30
2018-01-05T00:52:16.881Z,7.40
2018-01-05T00:54:46.648Z,7.40
2018-01-05T00:57:16.143Z,7.40
2018-01-05T00:59:45.871Z,7.30
2018-01-05T01:02:16.402Z,7.30
2018-01-05T01:04:46.897Z,7.30
2018-01-05T01:07:18.130Z,7.30
2018-01-05T01:09:50.063Z,7.40
2018-01-05T01:12:24.818Z,7.40
2018-01-05T01:14:59.458Z,7.30
2018-01-05T01:17:36.930Z,7.40
2018-01-05T01:20:07.084Z,7.40
2018-01-05T01:22:36.854Z,7.40
2018-01-05T01:25:06.576Z,7.40
2018-01-05T01:27:36.333Z,7.40
2018-01-05T01:30:06.821Z,7.40
2018-01-05T01:32:36.327Z,7.40
2018-01-05T01:35:06.052Z,7.50
2018-01-05T01:37:35.819Z,7.50
2018-01-05T01:40:05.562Z,7.50
2018-01-05T01:42:35.389Z,7.50
2018-01-05T01:45:04.967Z,7.60
2018-01-05T01:47:34.760Z,7.60
2018-01-05T01:50:05.307Z,7.60
2018-01-05T01:52:34.791Z,7.60
2018-01-05T01:55:05.320Z,7.70
2018-01-05T01:57:35.168Z,7.70
2018-01-05T02:00:04.245Z,7.80
2018-01-05T02:02:33.755Z,7.80
2018-01-05T02:05:03.497Z,7.80
2018-01-05T02:07:33.735Z,7.90
2018-01-05T02:10:03.469Z,7.90
2018-01-05T02:12:33.338Z,7.90
2018-01-05T02:15:02.406Z,7.90
2018-01-05T02:17:31.859Z,7.90
2018-01-05T02:20:02.142Z,7.90
2018-01-05T02:22:31.605Z,7.90
2018-01-05T02:25:01.449Z,7.90
2018-01-05T02:27:31.183Z,8.00
2018-01-05T02:30:00.917Z,8.00
2018-01-05T02:32:31.161Z,8.00
2018-01-05T02:35:01.723Z,7.90
2018-01-05T02:37:32.081Z,7.90
2018-01-05T02:40:01.833Z,7.90
2018-01-05T02:42:32.312Z,7.90
2018-01-05T02:45:02.094Z,7.90
2018-01-05T02:47:32.595Z,8.00
2018-01-05T02:50:03.848Z,8.00
2018-01-05T02:52:33.618Z,8.00
2018-01-05T02:55:03.338Z,8.00
2018-01-05T02:57:33.124Z,8.00
2018-01-05T03:00:02.859Z,8.10
2018-01-05T03:02:33.105Z,8.00
2018-01-05T03:05:02.805Z,8.00
2018-01-05T03:07:32.556Z,8.10
2018-01-05T03:10:02.269Z,8.20
2018-01-05T03:12:32.768Z,8.20
2018-01-05T03:15:02.221Z,8.20
2018-01-05T03:17:31.689Z,8.20
2018-01-05T03:20:02.278Z,8.20
2018-01-05T03:22:31.329Z,8.20
2018-01-05T03:25:01.827Z,8.10
2018-01-05T03:27:32.169Z,8.10
2018-01-05T03:30:03.410Z,8.10
2018-01-05T03:32:33.139Z,8.10
2018-01-05T03:35:03.653Z,8.10
2018-01-05T03:37:34.124Z,8.10
2018-01-05T03:40:03.857Z,8.10
2018-01-05T03:42:33.597Z,8.00
2018-01-05T03:45:03.417Z,8.00
2018-01-05T03:47:33.921Z,8.00
2018-01-05T03:50:03.655Z,8.00
2018-01-05T03:52:32.921Z,8.00
2018-01-05T03:55:02.677Z,8.00
2018-01-05T03:57:33.146Z,8.00
2018-01-05T04:00:03.621Z,8.00
2018-01-05T04:02:33.053Z,8.00
2018-01-05T04:05:02.797Z,7.90
2018-01-05T04:07:32.214Z,7.90
2018-01-05T04:10:01.951Z,7.90
2018-01-05T04:12:32.438Z,7.90
2018-01-05T04:15:02.209Z,7.90
2018-01-05T04:17:32.710Z,8.00
2018-01-05T04:20:02.442Z,8.00
2018-01-05T04:22:32.921Z,8.00
2018-01-05T04:25:02.727Z,8.00
2018-01-05T04:27:32.562Z,8.00
2018-01-05T04:30:02.811Z,8.00
2018-01-05T04:32:32.553Z,8.00
2018-01-05T04:35:01.597Z,8.10
2018-01-05T04:37:31.380Z,8.00
2018-01-05T04:40:01.090Z,8.00
2018-01-05T04:42:30.883Z,8.00
2018-01-05T04:45:00.594Z,8.00
2018-01-05T04:47:30.864Z,7.90
2018-01-05T04:50:00.569Z,7.90
2018-01-05T04:52:30.800Z,7.90
2018-01-05T04:55:00.535Z,7.90
2018-01-05T04:57:31.037Z,7.90
2018-01-05T05:00:01.239Z,7.90
2018-01-05T05:02:30.717Z,7.90
2018-01-05T05:05:00.153Z,7.80
2018-01-05T05:07:30.394Z,7.80
2018-01-05T05:10:00.665Z,7.80
2018-01-05T05:12:30.138Z,7.80
2018-01-05T05:14:59.581Z,7.80
2018-01-05T05:17:29.030Z,7.80
2018-01-05T05:19:59.284Z,7.70
2018-01-05T05:22:28.711Z,7.70
2018-01-05T05:24:58.179Z,7.70
2018-01-05T05:27:27.293Z,7.70
2018-01-05T05:29:56.745Z,7.60
2018-01-05T05:32:26.228Z,7.60
2018-01-05T05:34:55.672Z,7.50
2018-01-05T05:37:25.934Z,7.50
2018-01-05T05:39:55.366Z,7.50
2018-01-05T05:42:24.848Z,7.50
2018-01-05T05:44:54.470Z,7.50
2018-01-05T05:47:23.911Z,7.50
2018-01-05T05:49:54.175Z,7.40
2018-01-05T05:52:23.604Z,7.40
2018-01-05T05:54:53.034Z,7.40
2018-01-05T05:57:23.255Z,7.40
2018-01-05T05:59:52.730Z,7.40
2018-01-05T06:02:22.184Z,7.50
2018-01-05T06:04:52.393Z,7.40
2018-01-05T06:07:24.441Z,7.40
2018-01-05T06:09:53.910Z,7.40
2018-01-05T06:12:24.129Z,7.30
2018-01-05T06:14:54.355Z,7.30
2018-01-05T06:17:24.574Z,7.20
2018-01-05T06:19:54.805Z,7.10
2018-01-05T06:22:24.278Z,7.10
2018-01-05T06:24:53.726Z,7.10
2018-01-05T06:27:23.194Z,7.10
2018-01-05T06:29:53.416Z,7.00
2018-01-05T06:32:22.890Z,7.00
2018-01-05T06:34:52.327Z,7.00
2018-01-05T06:37:22.582Z,6.90
2018-01-05T06:39:52.014Z,6.90
2018-01-05T06:42:21.446Z,6.90
2018-01-05T06:44:50.968Z,6.80
2018-01-05T06:47:21.345Z,6.80
2018-01-05T06:49:50.885Z,6.80
2018-01-05T06:52:20.318Z,6.80
2018-01-05T06:54:49.790Z,6.80
2018-01-05T06:57:19.229Z,6.80
2018-01-05T06:59:49.500Z,6.80
2018-01-05T07:02:18.933Z,6.80
2018-01-05T07:04:48.369Z,6.80
2018-01-05T07:07:17.851Z,6.80
2018-01-05T07:09:48.074Z,6.90
2018-01-05T07:12:18.312Z,7.00
2018-01-05T07:14:47.741Z,7.00
2018-01-05T07:17:17.175Z,6.90
2018-01-05T07:19:46.478Z,7.00
2018-01-05T07:22:15.929Z,7.00
2018-01-05T07:24:45.365Z,7.00
2018-01-05T07:27:14.845Z,7.00
2018-01-05T07:29:44.285Z,7.00
2018-01-05T07:32:13.434Z,7.00
2018-01-05T07:34:42.869Z,7.00
2018-01-05T07:37:12.346Z,7.10
2018-01-05T07:39:42.597Z,7.10
2018-01-05T07:42:12.035Z,7.10
2018-01-05T07:44:41.508Z,7.10
2018-01-05T07:47:10.985Z,7.10
2018-01-05T07:49:40.449Z,7.10
2018-01-05T07:52:09.885Z,7.20
2018-01-05T07:54:39.361Z,7.20
2018-01-05T07:57:08.809Z,7.20
2018-01-05T07:59:38.245Z,7.30
2018-01-05T08:02:07.723Z,7.30
2018-01-05T08:04:37.177Z,7.30
2018-01-05T08:07:06.634Z,7.30
2018-01-05T08:09:36.195Z,7.30
2018-01-05T08:12:05.754Z,7.30
2018-01-05T08:14:35.202Z,7.40
2018-01-05T08:17:04.308Z,7.40
2018-01-05T08:19:34.533Z,7.50
2018-01-05T08:22:08.374Z,7.40
2018-01-05T08:24:37.824Z,7.40
2018-01-05T08:27:07.313Z,7.50
2018-01-05T08:29:36.790Z,7.50
2018-01-05T08:32:06.227Z,7.60
2018-01-05T08:34:35.666Z,7.50
2018-01-05T08:37:05.939Z,7.60
2018-01-05T08:39:35.367Z,7.60
2018-01-05T08:42:04.818Z,7.60
2018-01-05T08:44:34.283Z,7.70
2018-01-05T08:47:03.713Z,7.70
2018-01-05T08:49:33.150Z,7.80
2018-01-05T08:52:02.632Z,7.80
2018-01-05T08:54:32.825Z,7.90
2018-01-05T08:57:02.329Z,7.90
2018-01-05T08:59:31.787Z,7.90
2018-01-05T09:02:01.039Z,8.00
2018-01-05T09:04:30.585Z,8.00
2018-01-05T09:07:00.062Z,8.00
2018-01-05T09:09:30.318Z,8.00
2018-01-05T09:11:59.754Z,8.00
2018-01-05T09:14:29.230Z,8.00
2018-01-05T09:16:58.745Z,8.00
2018-01-05T09:19:28.191Z,8.00
2018-01-05T09:21:57.669Z,8.00
2018-01-05T09:24:27.198Z,8.00
2018-01-05T09:26:56.625Z,8.10
2018-01-05T09:29:26.856Z,8.10
2018-01-05T09:31:56.387Z,8.10
2018-01-05T09:34:25.840Z,8.10
2018-01-05T09:36:55.313Z,8.10
2018-01-05T09:39:24.780Z,8.10
2018-01-05T09:41:55.010Z,8.10
2018-01-05T09:44:24.449Z,8.10
2018-01-05T09:46:53.900Z,8.20
2018-01-05T09:49:23.337Z,8.20
2018-01-05T09:51:52.798Z,8.30
2018-01-05T09:54:23.067Z,8.40
2018-01-05T09:56:52.499Z,8.40
2018-01-05T09:59:21.949Z,8.40
2018-01-05T10:01:51.067Z,8.40
2018-01-05T10:04:20.566Z,8.40
2018-01-05T10:06:50.179Z,8.50
2018-01-05T10:09:19.659Z,8.50
2018-01-05T10:11:49.858Z,8.50
2018-01-05T10:14:20.094Z,8.60
2018-01-05T10:16:50.297Z,8.60
2018-01-05T10:19:19.801Z,8.60
2018-01-05T10:21:49.246Z,8.60
2018-01-05T10:24:18.721Z,8.70
2018-01-05T10:26:49.014Z,8.70
2018-01-05T10:29:18.474Z,8.70
2018-01-05T10:31:47.922Z,8.70
2018-01-05T10:34:17.042Z,8.80
2018-01-05T10:36:47.254Z,8.80
2018-01-05T10:39:18.325Z,8.80
2018-01-05T10:41:48.541Z,8.80
2018-01-05T10:44:18.014Z,8.80
2018-01-05T10:46:47.490Z,8.90
2018-01-05T10:49:16.962Z,8.90
2018-01-05T10:51:47.205Z,9.00
2018-01-05T10:54:16.770Z,9.00
2018-01-05T10:56:46.277Z,9.10
2018-01-05T10:59:15.537Z,9.10
2018-01-05T11:01:45.026Z,9.20
2018-01-05T11:04:14.483Z,9.30
2018-01-05T11:06:44.186Z,9.30
2018-01-05T11:09:13.632Z,9.40
2018-01-05T11:11:43.088Z,9.40
2018-01-05T11:14:18.893Z,9.50
2018-01-05T11:16:52.702Z,9.50
2018-01-05T11:19:27.300Z,9.50
2018-01-05T11:21:59.455Z,9.60
2018-01-05T11:24:32.479Z,9.60
2018-01-05T11:27:06.113Z,9.60
2018-01-05T11:29:43.218Z,9.60
2018-01-05T11:32:15.369Z,9.60
2018-01-05T11:34:53.241Z,9.70
2018-01-05T11:37:30.223Z,9.70
2018-01-05T11:40:07.784Z,9.70
2018-01-05T11:42:41.238Z,9.80
2018-01-05T11:45:17.657Z,9.70
2018-01-05T11:47:51.253Z,9.70
2018-01-05T11:50:25.404Z,9.80
2018-01-05T11:52:58.185Z,9.80
2018-01-05T11:58:22.183Z,9.80
2018-01-05T12:00:57.925Z,9.80
2018-01-05T12:03:35.415Z,9.80
2018-01-05T12:06:13.530Z,9.80
2018-01-05T12:09:07.917Z,9.60
2018-01-05T12:11:48.156Z,9.10
2018-01-05T12:14:32.441Z,9.10
2018-01-05T12:17:08.818Z,9.00
2018-01-05T12:19:51.081Z,8.80
2018-01-05T12:22:22.621Z,8.80
2018-01-05T12:24:57.803Z,8.70
2018-01-05T12:27:34.910Z,8.70
2018-01-05T12:30:12.888Z,8.80
2018-01-05T12:32:46.690Z,8.90
2018-01-05T12:35:25.232Z,9.00
2018-01-05T12:40:51.884Z,8.90
2018-01-05T12:46:07.145Z,9.00
2018-01-05T12:48:41.380Z,9.20
2018-01-05T12:51:25.327Z,9.20
2018-01-05T12:56:42.458Z,9.00
2018-01-05T12:59:13.106Z,8.90
2018-01-05T13:01:46.647Z,8.90
2018-01-05T13:04:23.464Z,9.00
2018-01-05T13:06:57.268Z,9.10
2018-01-05T13:09:33.410Z,9.10
2018-01-05T13:12:13.456Z,9.10
2018-01-05T13:14:58.247Z,9.30
2018-01-05T13:17:37.299Z,9.30
2018-01-05T13:20:14.047Z,9.20
2018-01-05T13:22:53.843Z,9.00
2018-01-05T13:25:28.563Z,8.90
2018-01-05T13:28:01.751Z,8.80
2018-01-05T13:30:35.516Z,8.90
2018-01-05T13:33:10.044Z,8.90
2018-01-05T13:35:46.196Z,8.90
2018-01-05T13:38:21.137Z,9.00
2018-01-05T13:40:55.498Z,9.10
2018-01-05T13:43:31.145Z,9.10
2018-01-05T13:46:07.111Z,9.00
2018-01-05T13:48:44.760Z,8.80
2018-01-05T13:51:21.326Z,8.80
2018-01-05T13:53:57.480Z,8.80
2018-01-05T13:56:30.775Z,8.70
2018-01-05T13:59:07.510Z,8.70
2018-01-05T14:01:44.242Z,8.60
2018-01-05T14:04:15.158Z,8.60
2018-01-05T14:06:48.972Z,8.60
2018-01-05T14:09:26.959Z,8.50
2018-01-05T14:12:04.674Z,8.50
2018-01-05T14:14:40.426Z,8.50
2018-01-05T14:17:22.160Z,8.50
2018-01-05T14:19:57.992Z,8.50
2018-01-05T14:22:34.031Z,8.50
2018-01-05T14:25:07.860Z,8.40
2018-01-05T14:27:40.523Z,8.40
2018-01-05T14:30:18.407Z,8.30
2018-01-05T14:32:52.134Z,8.30
2018-01-05T14:35:27.847Z,8.30
2018-01-05T14:38:03.603Z,8.20
2018-01-05T14:40:41.898Z,8.20
2018-01-05T14:43:21.215Z,8.20
2018-01-05T14:48:34.793Z,8.20
2018-01-05T14:51:15.715Z,8.10
2018-01-05T14:53:51.620Z,8.10
2018-01-05T14:56:41.451Z,8.00
2018-01-05T14:59:17.495Z,8.00
2018-01-05T15:01:56.019Z,8.00
2018-01-05T15:04:30.801Z,7.90
2018-01-05T15:07:08.901Z,7.90
2018-01-05T15:09:41.418Z,7.90
2018-01-05T15:12:14.566Z,7.80
2018-01-05T15:14:47.051Z,7.80
2018-01-05T15:17:18.830Z,7.80
2018-01-05T15:19:50.067Z,7.80
2018-01-05T15:22:23.390Z,7.80
2018-01-05T15:24:58.786Z,7.80
2018-01-05T15:27:33.301Z,7.80
2018-01-05T15:30:05.314Z,7.70
2018-01-05T15:32:36.104Z,7.70
2018-01-05T15:35:09.442Z,7.70
2018-01-05T15:37:40.904Z,7.70
2018-01-05T15:40:14.079Z,7.70
2018-01-05T15:42:46.514Z,7.70
2018-01-05T15:45:19.586Z,7.70
2018-01-05T15:47:53.757Z,7.70
2018-01-05T15:50:25.297Z,7.60
2018-01-05T15:52:57.944Z,7.60
2018-01-05T15:55:29.885Z,7.60
2018-01-05T15:58:01.766Z,7.60
2018-01-05T16:00:34.932Z,7.60
2018-01-05T16:03:11.816Z,7.60
2018-01-05T16:05:44.736Z,7.50
2018-01-05T16:08:18.081Z,7.40
2018-01-05T16:10:50.083Z,7.40
2018-01-05T16:13:26.720Z,7.40
2018-01-05T16:15:59.344Z,7.40
2018-01-05T16:18:30.591Z,7.40
2018-01-05T16:21:01.833Z,7.30
2018-01-05T16:23:33.572Z,7.30
2018-01-05T16:26:04.513Z,7.30
2018-01-05T16:28:40.049Z,7.30
2018-01-05T16:31:11.981Z,7.30
2018-01-05T16:33:43.451Z,7.30
2018-01-05T16:36:17.462Z,7.30
2018-01-05T16:38:53.375Z,7.30
2018-01-05T16:41:29.227Z,7.30
2018-01-05T16:44:01.240Z,7.30
2018-01-05T16:46:33.330Z,7.20
2018-01-05T16:49:05.278Z,7.30
2018-01-05T16:51:39.507Z,7.30
2018-01-05T16:54:12.084Z,7.30
2018-01-05T16:56:47.728Z,7.30
2018-01-05T16:59:20.284Z,7.30
2018-01-05T17:01:58.419Z,7.30
2018-01-05T17:04:33.116Z,7.20
2018-01-05T17:07:04.463Z,7.20
2018-01-05T17:09:35.406Z,7.20
2018-01-05T17:12:08.796Z,7.20
2018-01-05T17:14:43.112Z,7.20
2018-01-05T17:17:15.306Z,7.20
2018-01-05T17:19:48.600Z,7.20
2018-01-05T17:22:24.324Z,7.20
2018-01-05T17:24:57.392Z,7.10
2018-01-05T17:27:32.424Z,7.10
2018-01-05T17:30:07.600Z,7.10
2018-01-05T17:32:42.727Z,7.10
2018-01-05T17:35:15.732Z,7.10
2018-01-05T17:37:49.240Z,7.10
2018-01-05T17:40:19.961Z,7.10
2018-01-05T17:42:55.085Z,7.10
2018-01-05T17:45:28.376Z,7.10
2018-01-05T17:48:00.951Z,7.00
2018-01-05T17:50:34.158Z,7.00
2018-01-05T17:53:05.503Z,7.00
2018-01-05T17:55:38.902Z,7.00
2018-01-05T17:58:14.849Z,7.00
2018-01-05T18:00:51.513Z,7.00
2018-01-05T18:03:24.722Z,7.00
2018-01-05T18:05:59.241Z,7.00
2018-01-05T18:08:32.621Z,7.00
2018-01-05T18:11:07.808Z,7.00
2018-01-05T18:13:41.175Z,7.00
2018-01-05T18:16:12.312Z,7.00
2018-01-05T18:18:44.507Z,7.00
2018-01-05T18:21:17.702Z,7.00
2018-01-05T18:23:53.932Z,6.90
2018-01-05T18:26:28.659Z,6.90
2018-01-05T18:29:03.974Z,6.90
2018-01-05T18:31:42.053Z,6.90
2018-01-05T18:34:20.110Z,6.90
2018-01-05T18:36:57.083Z,6.80
2018-01-05T18:39:29.266Z,6.80
2018-01-05T18:42:10.317Z,6.80
2018-01-05T18:44:44.046Z,6.80
2018-01-05T18:47:18.847Z,6.70
2018-01-05T18:49:52.055Z,6.60
2018-01-05T18:52:30.552Z,6.60
2018-01-05T18:55:06.909Z,6.50
2018-01-05T18:57:44.836Z,6.50
2018-01-05T19:00:18.648Z,6.50
2018-01-05T19:02:54.511Z,6.40
2018-01-05T19:05:27.583Z,6.40
2018-01-05T19:08:01.518Z,6.50
2018-01-05T19:10:33.435Z,6.40
2018-01-05T19:13:06.265Z,6.40
2018-01-05T19:15:39.296Z,6.40
2018-01-05T19:18:10.693Z,6.40
2018-01-05T19:20:44.660Z,6.30
2018-01-05T19:23:18.817Z,6.40
2018-01-05T19:25:52.187Z,6.30
2018-01-05T19:28:27.700Z,6.20
2018-01-05T19:31:01.930Z,6.20
2018-01-05T19:33:38.251Z,6.10
2018-01-05T19:36:13.219Z,6.10
2018-01-05T19:38:45.131Z,6.00
2018-01-05T19:41:21.554Z,6.00
2018-01-05T19:43:56.009Z,5.90
2018-01-05T19:46:27.312Z,5.80
2018-01-05T19:49:09.163Z,5.70
2018-01-05T19:51:41.811Z,5.70
2018-01-05T19:54:13.654Z,5.70
2018-01-05T19:56:46.421Z,5.60
2018-01-05T19:59:20.771Z,5.60
2018-01-05T20:01:52.397Z,5.60
2018-01-05T20:04:26.432Z,5.60
2018-01-05T20:07:00.116Z,5.70
2018-01-05T20:09:33.838Z,5.70
2018-01-05T20:12:11.760Z,5.70
2018-01-05T20:14:45.259Z,5.70
2018-01-05T20:17:17.187Z,5.70
2018-01-05T20:19:50.060Z,5.70
2018-01-05T20:25:00.638Z,5.70
2018-01-05T20:27:31.524Z,5.70
2018-01-05T20:30:01.713Z,5.70
2018-01-05T20:32:34.637Z,5.70
2018-01-05T20:35:09.509Z,5.70
2018-01-05T20:37:42.137Z,5.70
2018-01-05T20:40:26.388Z,5.60
2018-01-05T20:42:59.782Z,5.60
2018-01-05T20:45:35.293Z,5.60
2018-01-05T20:48:27.361Z,5.60
2018-01-05T20:51:05.590Z,5.60
2018-01-05T20:53:49.586Z,5.60
2018-01-05T20:56:23.740Z,5.60
2018-01-05T20:59:00.865Z,5.70
2018-01-05T21:01:35.202Z,5.70
2018-01-05T21:04:09.913Z,5.70
2018-01-05T21:06:40.646Z,5.70
2018-01-05T21:09:22.513Z,5.70
2018-01-05T21:11:59.141Z,5.70
2018-01-05T21:14:37.003Z,5.70
2018-01-05T21:17:10.130Z,5.70
2018-01-05T21:19:46.163Z,5.70
2018-01-05T21:24:57.553Z,5.70
2018-01-05T21:30:11.765Z,5.60
2018-01-05T21:32:46.337Z,5.60
2018-01-05T21:35:22.497Z,5.50
2018-01-05T21:37:56.969Z,5.60
2018-01-05T21:40:30.568Z,5.50
2018-01-05T21:43:08.225Z,5.50
2018-01-05T21:45:44.231Z,5.40
2018-01-05T21:48:17.980Z,5.40
2018-01-05T21:50:48.707Z,5.50
2018-01-05T21:53:22.679Z,5.50
2018-01-05T21:55:59.214Z,5.50
2018-01-05T21:58:36.635Z,5.50
2018-01-05T22:01:09.278Z,5.40
2018-01-05T22:03:46.254Z,5.40
2018-01-05T22:06:17.912Z,5.40
2018-01-05T22:08:49.658Z,5.40
2018-01-05T22:11:27.954Z,5.40
2018-01-05T22:16:52.943Z,5.40
2018-01-05T22:19:28.634Z,5.40
2018-01-05T22:22:01.914Z,5.40
2018-01-05T22:24:34.491Z,5.40
2018-01-05T22:27:05.634Z,5.40
2018-01-05T22:29:38.723Z,5.40
2018-01-05T22:32:10.508Z,5.40
2018-01-05T22:34:45.719Z,5.30
2018-01-05T22:37:18.683Z,5.40
2018-01-05T22:39:54.482Z,5.40
2018-01-05T22:42:27.902Z,5.50
2018-01-05T22:44:59.600Z,5.40
2018-01-05T22:47:34.137Z,5.50
2018-01-05T22:50:04.888Z,5.50
2018-01-05T22:52:39.896Z,5.60
2018-01-05T22:55:12.729Z,5.60
2018-01-05T22:57:49.141Z,5.60
2018-01-05T23:00:23.590Z,5.60
2018-01-05T23:02:59.674Z,5.60
2018-01-05T23:05:33.801Z,5.60
2018-01-05T23:08:06.518Z,5.60
2018-01-05T23:10:41.065Z,5.60
2018-01-05T23:13:15.483Z,5.60
2018-01-05T23:15:48.857Z,5.60
2018-01-05T23:18:25.128Z,5.60
2018-01-05T23:20:59.997Z,5.50
2018-01-05T23:23:34.365Z,5.50
2018-01-05T23:26:10.142Z,5.50
2018-01-05T23:28:42.885Z,5.50
2018-01-05T23:31:16.420Z,5.50
2018-01-05T23:33:50.763Z,5.40
2018-01-05T23:36:22.148Z,5.40
2018-01-05T23:38:54.203Z,5.40
2018-01-05T23:41:25.384Z,5.30
2018-01-05T23:43:56.414Z,5.30
2018-01-05T23:46:27.974Z,5.30
2018-01-05T23:51:40.000Z,5.30
2018-01-05T23:54:12.181Z,5.30
2018-01-05T23:56:45.078Z,5.20
2018-01-05T23:59:18.115Z,5.30
